Time;durP1;ratioP1;P1;durP2;ratioP2;P2;SDS_P1;SDS_P2;PMS_P1;PMS_P2;Temp;Humidity;BMP_temperature;BMP_pressure;BME280_temperature;BME280_humidity;BME280_pressure;Samples;Min_cycle;Max_cycle;Signal;HPM_P1;HPM_P2
2022/07/18 00:01:04;;;;;;;3.60;1.98;;;;;;;21.26;35.64;95630.97;4977254;28;20234;-64
2022/07/18 00:03:30;;;;;;;2.72;1.80;;;;;;;21.03;36.60;95631.31;4982794;28;20231;-64
2022/07/18 00:05:55;;;;;;;2.55;2.30;;;;;;;20.83;37.02;95634.75;4982647;28;20239;-64
2022/07/18 00:08:21;;;;;;;4.80;2.08;;;;;;;20.98;35.82;95618.53;4978076;28;20228;-64
2022/07/18 00:10:46;;;;;;;3.10;1.80;;;;;;;21.12;35.55;95630.94;4978022;28;20633;-64
2022/07/18 00:13:12;;;;;;;2.42;1.77;;;;;;;20.99;35.94;95622.88;4984305;28;20232;-64
2022/07/18 00:15:37;;;;;;;2.20;1.95;;;;;;;21.02;35.72;95630.50;4981646;28;20326;-64
2022/07/18 00:18:03;;;;;;;4.53;2.25;;;;;;;20.80;36.20;95626.34;4985647;28;20340;-64
2022/07/18 00:20:29;;;;;;;1.92;1.65;;;;;;;20.82;36.12;95626.94;4989193;28;20346;-64
2022/07/18 00:22:54;;;;;;;2.78;2.00;;;;;;;20.70;36.29;95627.50;4984388;28;20222;-64
2022/07/18 00:25:20;;;;;;;2.72;2.17;;;;;;;20.78;35.96;95625.69;4976875;28;20207;-64
2022/07/18 00:27:46;;;;;;;2.30;2.10;;;;;;;20.88;35.61;95623.47;4979227;28;20575;-64
2022/07/18 00:30:12;;;;;;;2.38;1.85;;;;;;;20.83;35.53;95621.41;4977749;28;20231;-64
2022/07/18 00:32:37;;;;;;;2.63;1.77;;;;;;;20.72;35.68;95619.31;4983306;28;20224;-65
2022/07/18 00:35:03;;;;;;;2.05;1.83;;;;;;;20.69;35.52;95625.06;4984317;28;20208;-64
2022/07/18 00:37:28;;;;;;;2.13;1.92;;;;;;;20.59;35.49;95620.06;4983550;28;20198;-64
2022/07/18 00:39:54;;;;;;;6.10;2.05;;;;;;;20.51;35.57;95620.22;4978049;28;20250;-65
2022/07/18 00:42:20;;;;;;;2.05;1.85;;;;;;;20.50;35.74;95623.88;4976999;28;20228;-65
2022/07/18 00:44:46;;;;;;;3.05;1.90;;;;;;;20.51;35.43;95611.38;4982131;28;20255;-65
2022/07/18 00:47:11;;;;;;;2.40;1.90;;;;;;;20.49;35.56;95620.41;4983613;28;20207;-65
2022/07/18 00:49:36;;;;;;;2.92;1.77;;;;;;;20.34;35.71;95621.56;4977441;28;20216;-65
2022/07/18 00:52:02;;;;;;;2.33;1.90;;;;;;;20.42;35.32;95618.72;4987597;28;20310;-65
2022/07/18 00:54:28;;;;;;;2.22;1.67;;;;;;;20.35;35.25;95625.91;4980712;28;20301;-64
2022/07/18 00:56:54;;;;;;;1.92;1.83;;;;;;;20.41;35.28;95620.56;4982523;28;20243;-64
2022/07/18 00:59:20;;;;;;;3.33;1.90;;;;;;;20.32;35.16;95621.78;4974289;28;20223;-64
2022/07/18 01:01:47;;;;;;;1.70;1.55;;;;;;;20.29;35.15;95622.16;4983771;28;20214;-64
2022/07/18 01:04:21;;;;;;;3.70;1.80;;;;;;;20.28;35.25;95626.66;4981954;28;20227;-64
2022/07/18 01:06:48;;;;;;;2.00;1.70;;;;;;;20.31;35.06;95621.97;4978954;28;20679;-64
2022/07/18 01:09:15;;;;;;;1.40;1.30;;;;;;;20.23;35.41;95629.13;4985321;28;20256;-64
2022/07/18 01:11:42;;;;;;;2.17;1.52;;;;;;;20.15;35.09;95629.25;4986990;28;20224;-65
2022/07/18 01:14:08;;;;;;;1.73;1.42;;;;;;;20.16;35.09;95630.09;4974235;28;20238;-65
2022/07/18 01:16:34;;;;;;;3.30;1.65;;;;;;;20.11;35.10;95627.19;4973065;28;20207;-65
2022/07/18 01:18:59;;;;;;;1.70;1.60;;;;;;;20.21;34.56;95627.69;4978961;28;20216;-65
2022/07/18 01:21:26;;;;;;;2.22;1.50;;;;;;;20.14;34.68;95619.59;4980197;28;20234;-65
2022/07/18 01:23:51;;;;;;;2.90;1.77;;;;;;;19.99;34.91;95611.72;4980137;28;20241;-65
2022/07/18 01:26:17;;;;;;;1.50;1.40;;;;;;;20.00;34.89;95617.88;4982748;28;20585;-65
2022/07/18 01:28:43;;;;;;;3.28;1.60;;;;;;;20.07;34.69;95620.59;4981369;28;20210;-65
2022/07/18 01:31:09;;;;;;;2.05;1.45;;;;;;;20.02;34.57;95629.16;4980435;28;20214;-64
2022/07/18 01:33:35;;;;;;;3.08;1.60;;;;;;;20.02;34.23;95631.84;4983179;28;20223;-65
2022/07/18 01:36:03;;;;;;;1.90;1.55;;;;;;;19.95;34.39;95628.31;4982476;28;20392;-64
2022/07/18 01:38:30;;;;;;;2.20;1.80;;;;;;;20.02;33.98;95615.81;4979192;28;20234;-64
2022/07/18 01:40:58;;;;;;;2.25;1.35;;;;;;;19.79;34.59;95616.09;4974173;28;20211;-65
2022/07/18 01:43:24;;;;;;;2.35;1.45;;;;;;;19.69;34.59;95607.59;4979458;28;20349;-65
2022/07/18 01:45:49;;;;;;;3.13;1.45;;;;;;;19.75;34.29;95612.16;4981129;28;20238;-65
2022/07/18 01:48:15;;;;;;;2.97;1.60;;;;;;;19.75;34.35;95606.81;4981827;28;20234;-65
2022/07/18 01:50:41;;;;;;;5.25;1.63;;;;;;;19.68;34.31;95606.78;4983402;28;20239;-65
2022/07/18 01:53:06;;;;;;;2.50;1.60;;;;;;;19.67;34.31;95610.44;4982862;28;20204;-65
2022/07/18 01:55:32;;;;;;;1.45;1.35;;;;;;;19.64;34.22;95607.31;4982834;28;20223;-65
2022/07/18 01:57:57;;;;;;;1.52;1.42;;;;;;;19.63;34.26;95603.84;4984992;28;20231;-65
2022/07/18 02:00:23;;;;;;;2.55;1.45;;;;;;;19.64;34.27;95608.16;4979112;28;20369;-65
2022/07/18 02:02:48;;;;;;;2.42;1.58;;;;;;;19.65;34.33;95603.66;4992764;28;20224;-64
2022/07/18 02:05:14;;;;;;;2.40;1.40;;;;;;;19.62;34.75;95607.53;4994341;28;20226;-65
2022/07/18 02:07:42;;;;;;;1.73;1.63;;;;;;;19.58;34.62;95603.59;4983303;28;20206;-65
2022/07/18 02:10:12;;;;;;;1.65;1.55;;;;;;;19.39;35.36;95605.09;4987227;28;20226;-64
2022/07/18 02:12:38;;;;;;;3.13;1.90;;;;;;;19.33;36.28;95617.34;4980537;28;20399;-64
2022/07/18 02:15:06;;;;;;;2.38;1.58;;;;;;;19.35;35.56;95615.31;4988690;28;20235;-65
2022/07/18 02:17:33;;;;;;;2.95;1.52;;;;;;;19.47;35.03;95620.13;4982897;28;20216;-64
2022/07/18 02:19:58;;;;;;;3.08;1.55;;;;;;;19.49;34.95;95621.59;4995197;28;20257;-64
2022/07/18 02:22:24;;;;;;;2.72;1.42;;;;;;;19.53;34.95;95614.00;4988771;28;20211;-64
2022/07/18 02:24:50;;;;;;;4.00;1.38;;;;;;;19.49;34.78;95612.75;4984710;28;20216;-64
2022/07/18 02:27:16;;;;;;;4.47;1.45;;;;;;;19.37;35.12;95613.25;4982403;28;20227;-64
2022/07/18 02:29:41;;;;;;;2.22;1.75;;;;;;;19.39;34.97;95616.56;4985601;28;20220;-64
2022/07/18 02:32:07;;;;;;;1.98;1.70;;;;;;;19.17;35.59;95615.75;4984831;28;20196;-65
2022/07/18 02:34:32;;;;;;;2.63;1.70;;;;;;;19.05;36.66;95625.25;4981470;28;20262;-64
2022/07/18 02:36:58;;;;;;;1.73;1.55;;;;;;;19.07;36.10;95628.56;4985177;28;20542;-64
2022/07/18 02:39:24;;;;;;;2.30;1.50;;;;;;;19.02;36.50;95630.97;4990247;28;20258;-66
2022/07/18 02:41:49;;;;;;;3.58;1.65;;;;;;;18.99;36.84;95633.19;4987370;28;20266;-65
2022/07/18 02:44:15;;;;;;;4.15;1.80;;;;;;;19.02;35.96;95627.50;4984013;28;20306;-66
2022/07/18 02:46:41;;;;;;;1.90;1.45;;;;;;;18.90;36.69;95643.16;4984469;28;20289;-66
2022/07/18 02:49:06;;;;;;;2.40;1.55;;;;;;;18.66;36.71;95649.63;4980692;28;20257;-65
2022/07/18 02:51:32;;;;;;;3.72;1.50;;;;;;;18.80;37.03;95642.63;4988268;28;20575;-66
2022/07/18 02:53:57;;;;;;;2.13;1.92;;;;;;;18.87;36.89;95646.16;4986297;28;20243;-65
2022/07/18 02:56:23;;;;;;;4.03;1.63;;;;;;;18.87;36.23;95643.50;4987962;28;20311;-65
2022/07/18 02:58:48;;;;;;;3.13;1.70;;;;;;;18.88;36.13;95632.69;4976663;28;20243;-65
2022/07/18 03:01:14;;;;;;;4.10;1.60;;;;;;;18.94;35.80;95642.56;4983444;28;20266;-65
2022/07/18 03:03:39;;;;;;;3.53;1.40;;;;;;;18.99;35.49;95643.88;4978816;28;20251;-65
2022/07/18 03:06:05;;;;;;;3.90;1.40;;;;;;;19.00;35.27;95648.16;4980122;28;20306;-65
2022/07/18 03:08:30;;;;;;;2.25;1.50;;;;;;;18.97;34.88;95645.88;4980485;28;20231;-65
2022/07/18 03:10:56;;;;;;;3.20;1.40;;;;;;;18.89;35.17;95649.47;4981723;28;20216;-66
2022/07/18 03:13:21;;;;;;;3.22;1.80;;;;;;;18.90;34.47;95643.97;4984667;28;20261;-65
2022/07/18 03:15:47;;;;;;;2.28;1.52;;;;;;;18.87;34.53;95644.34;4983872;28;20286;-65
2022/07/18 03:18:12;;;;;;;3.13;1.23;;;;;;;18.88;34.23;95642.50;4983131;28;20223;-66
2022/07/18 03:20:38;;;;;;;1.98;1.35;;;;;;;18.83;34.29;95647.56;4984372;28;20243;-66
2022/07/18 03:23:07;;;;;;;2.55;1.65;;;;;;;18.71;34.23;95652.50;4983890;28;20218;-65
2022/07/18 03:25:33;;;;;;;1.88;1.40;;;;;;;18.69;34.46;95649.22;4983574;28;20226;-66
2022/07/18 03:27:59;;;;;;;1.77;1.65;;;;;;;18.72;33.96;95654.19;4976120;28;20228;-64
2022/07/18 03:30:25;;;;;;;2.50;1.30;;;;;;;18.79;33.94;95644.47;4982181;28;20262;-65
2022/07/18 03:32:50;;;;;;;2.80;1.52;;;;;;;18.87;33.51;95647.03;4987111;28;20227;-65
2022/07/18 03:35:16;;;;;;;2.90;1.50;;;;;;;18.82;33.43;95648.56;4980986;28;20254;-64
2022/07/18 03:37:42;;;;;;;2.58;1.50;;;;;;;18.78;33.61;95648.13;4984256;28;20777;-64
2022/07/18 03:40:08;;;;;;;2.47;1.50;;;;;;;18.80;33.69;95646.13;4979060;28;20239;-65
2022/07/18 03:42:37;;;;;;;2.53;1.30;;;;;;;18.77;33.58;95654.47;4977180;28;20228;-65
2022/07/18 03:45:03;;;;;;;2.15;1.50;;;;;;;18.77;34.00;95654.47;4978277;28;21027;-65
2022/07/18 03:47:29;;;;;;;1.95;1.17;;;;;;;18.79;33.63;95652.47;4986720;28;20228;-64
2022/07/18 03:49:54;;;;;;;1.35;1.20;;;;;;;18.82;33.63;95654.75;4979542;28;20217;-64
2022/07/18 03:52:20;;;;;;;2.92;1.60;;;;;;;18.77;33.88;95657.16;4986305;28;20195;-64
2022/07/18 03:54:46;;;;;;;2.95;1.90;;;;;;;18.87;34.08;95657.69;4978958;28;20234;-64
2022/07/18 03:57:11;;;;;;;2.70;1.88;;;;;;;18.83;34.37;95651.06;4977567;28;20223;-64
2022/07/18 03:59:37;;;;;;;2.00;1.48;;;;;;;18.71;34.92;95653.38;4977629;28;20786;-64
2022/07/18 04:02:02;;;;;;;3.72;1.73;;;;;;;18.81;34.28;95660.25;4985128;28;20203;-64
2022/07/18 04:04:28;;;;;;;2.53;1.70;;;;;;;18.79;35.26;95670.25;4983079;28;20204;-65
2022/07/18 04:06:53;;;;;;;3.88;1.50;;;;;;;18.66;36.21;95668.25;4987713;28;20678;-64
2022/07/18 04:09:19;;;;;;;2.60;1.77;;;;;;;18.72;35.94;95668.31;4978872;28;20621;-64
2022/07/18 04:11:44;;;;;;;3.17;2.25;;;;;;;18.62;36.63;95662.47;4984104;28;20227;-64
2022/07/18 04:14:10;;;;;;;3.75;1.95;;;;;;;18.70;36.55;95667.69;4977603;28;20560;-64
2022/07/18 04:16:35;;;;;;;4.80;2.08;;;;;;;18.70;37.12;95673.00;4985014;28;20215;-65
2022/07/18 04:19:00;;;;;;;2.15;1.63;;;;;;;18.65;37.32;95671.91;4982604;28;20216;-65
2022/07/18 04:21:26;;;;;;;3.03;1.65;;;;;;;18.71;37.35;95661.34;4981562;28;20228;-65
2022/07/18 04:23:52;;;;;;;4.28;1.73;;;;;;;18.88;35.85;95661.97;4987728;28;20224;-66
2022/07/18 04:26:18;;;;;;;3.58;2.80;;;;;;;18.94;35.27;95657.75;4976907;28;20227;-65
2022/07/18 04:28:44;;;;;;;2.70;2.33;;;;;;;19.14;34.66;95665.97;4980086;28;20207;-65
2022/07/18 04:31:09;;;;;;;2.28;1.70;;;;;;;19.13;34.64;95656.31;4980726;28;20223;-65
2022/07/18 04:33:34;;;;;;;3.80;1.60;;;;;;;19.14;34.41;95652.66;4979167;28;20235;-63
2022/07/18 04:36:00;;;;;;;3.20;1.52;;;;;;;19.38;34.13;95644.25;4983480;28;20564;-63
2022/07/18 04:38:25;;;;;;;3.95;1.73;;;;;;;19.69;33.90;95656.44;4985703;28;20231;-63
2022/07/18 04:40:51;;;;;;;5.00;1.88;;;;;;;19.60;33.68;95653.06;4981523;28;20283;-64
2022/07/18 04:43:16;;;;;;;2.70;1.58;;;;;;;19.46;33.74;95645.97;4986303;28;20220;-66
2022/07/18 04:45:42;;;;;;;2.45;1.60;;;;;;;19.50;33.56;95641.91;4985082;28;20228;-66
2022/07/18 04:48:07;;;;;;;1.52;1.42;;;;;;;19.55;32.50;95644.81;4984795;28;20235;-63
2022/07/18 04:50:32;;;;;;;2.70;1.50;;;;;;;19.60;33.03;95641.56;4985088;28;20219;-61
2022/07/18 04:52:58;;;;;;;2.63;1.55;;;;;;;19.50;33.12;95641.91;4978288;28;20203;-63
2022/07/18 04:55:25;;;;;;;5.10;1.70;;;;;;;19.44;33.82;95649.84;4980242;28;20215;-63
2022/07/18 04:57:52;;;;;;;3.85;2.05;;;;;;;19.49;35.27;95642.09;4989965;28;20219;-63
2022/07/18 05:00:21;;;;;;;7.40;2.20;;;;;;;19.51;36.02;95648.91;4958031;28;20285;-62
2022/07/18 05:02:49;;;;;;;5.22;2.33;;;;;;;19.45;36.82;95651.50;4978924;28;20234;-62
2022/07/18 05:05:16;;;;;;;5.43;2.78;;;;;;;19.47;36.88;95647.63;4972928;28;20274;-62
2022/07/18 05:07:42;;;;;;;5.35;2.55;;;;;;;19.63;36.03;95646.53;4984521;28;20276;-62
2022/07/18 05:10:10;;;;;;;2.58;2.03;;;;;;;19.69;34.63;95648.44;4979228;28;20334;-62
2022/07/18 05:12:37;;;;;;;5.50;2.42;;;;;;;19.66;35.23;95650.66;4985763;28;20698;-62
2022/07/18 05:15:08;;;;;;;4.18;2.25;;;;;;;19.72;34.65;95650.72;4983276;28;20227;-62
2022/07/18 05:17:33;;;;;;;2.75;2.00;;;;;;;19.76;33.66;95646.66;4980512;28;20224;-63
2022/07/18 05:19:59;;;;;;;5.07;2.28;;;;;;;19.80;34.21;95652.44;4976812;28;20210;-63
2022/07/18 05:22:24;;;;;;;2.92;2.33;;;;;;;19.96;33.94;95652.13;4978054;28;20623;-63
2022/07/18 05:24:50;;;;;;;5.60;2.30;;;;;;;20.15;34.14;95653.28;4976740;28;20310;-63
2022/07/18 05:27:16;;;;;;;6.55;2.42;;;;;;;20.53;32.53;95658.25;4979896;28;20235;-61
2022/07/18 05:29:41;;;;;;;3.97;1.90;;;;;;;20.66;31.48;95655.69;4981934;28;20236;-62
2022/07/18 05:32:07;;;;;;;5.53;1.92;;;;;;;20.40;31.61;95659.00;4980529;28;20274;-62
2022/07/18 05:34:33;;;;;;;3.20;1.60;;;;;;;20.38;31.58;95660.22;4984680;28;20202;-63
2022/07/18 05:36:59;;;;;;;6.85;1.80;;;;;;;20.28;31.52;95653.38;4978960;28;20329;-66
2022/07/18 05:39:25;;;;;;;3.03;1.60;;;;;;;20.20;31.62;95655.38;4979144;28;20231;-65
2022/07/18 05:41:50;;;;;;;7.85;1.90;;;;;;;20.30;31.45;95663.06;4972970;28;20223;-63
2022/07/18 05:44:16;;;;;;;3.60;2.13;;;;;;;20.38;31.41;95660.22;4970673;28;20255;-61
2022/07/18 05:46:41;;;;;;;4.40;2.83;;;;;;;20.45;32.02;95655.75;4980075;28;20199;-63
2022/07/18 05:49:06;;;;;;;4.90;2.63;;;;;;;20.51;33.33;95657.63;4982413;28;20230;-64
2022/07/18 05:51:32;;;;;;;3.72;2.67;;;;;;;20.47;33.47;95656.34;4988094;28;20247;-63
2022/07/18 05:53:57;;;;;;;5.25;2.30;;;;;;;20.49;32.89;95659.66;4972253;28;20291;-62
2022/07/18 05:56:23;;;;;;;3.35;2.17;;;;;;;20.54;32.09;95661.78;4977319;28;20224;-62
2022/07/18 05:58:48;;;;;;;3.85;2.05;;;;;;;20.54;32.30;95659.09;4979093;28;20249;-62
2022/07/18 06:01:19;;;;;;;4.50;2.15;;;;;;;20.55;31.89;95660.75;4976540;28;20232;-61
2022/07/18 06:03:45;;;;;;;4.50;1.73;;;;;;;20.60;31.30;95659.13;4978849;28;20219;-61
2022/07/18 06:06:11;;;;;;;3.63;2.38;;;;;;;20.56;30.67;95663.22;4980954;28;20228;-64
2022/07/18 06:08:36;;;;;;;3.58;2.17;;;;;;;20.56;30.94;95663.22;4979537;28;20618;-62
2022/07/18 06:11:03;;;;;;;2.85;2.40;;;;;;;20.64;31.01;95663.06;4983513;28;20218;-64
2022/07/18 06:13:30;;;;;;;4.20;2.00;;;;;;;20.73;30.74;95653.00;4977994;28;20235;-63
2022/07/18 06:15:55;;;;;;;3.47;1.90;;;;;;;20.83;30.11;95663.34;4950538;28;20274;-62
2022/07/18 06:18:20;;;;;;;3.15;1.70;;;;;;;20.87;30.08;95661.91;4979600;28;20251;-62
2022/07/18 06:20:46;;;;;;;3.17;1.45;;;;;;;20.84;30.49;95654.28;4977512;28;20227;-60
2022/07/18 06:23:11;;;;;;;2.80;1.88;;;;;;;20.87;29.71;95651.22;4985768;28;20195;-61
2022/07/18 06:25:37;;;;;;;3.30;1.65;;;;;;;20.79;28.61;95654.88;4984758;28;20207;-60
2022/07/18 06:28:02;;;;;;;4.03;1.35;;;;;;;20.84;28.18;95656.97;4987828;28;20247;-61
2022/07/18 06:30:27;;;;;;;3.75;1.60;;;;;;;20.86;28.00;95654.91;4978728;28;20233;-62
2022/07/18 06:32:53;;;;;;;2.28;1.25;;;;;;;20.96;27.76;95650.03;4981384;28;20228;-61
2022/07/18 06:35:18;;;;;;;11.77;1.80;;;;;;;20.95;27.67;95648.34;4985187;28;20247;-61
2022/07/18 06:37:44;;;;;;;1.70;1.30;;;;;;;20.93;27.75;95642.41;4980278;28;20560;-62
2022/07/18 06:40:10;;;;;;;1.80;1.40;;;;;;;21.00;27.92;95645.91;4988482;28;20227;-63
2022/07/18 06:42:35;;;;;;;1.55;1.35;;;;;;;21.00;28.27;95643.25;4980159;28;20234;-62
2022/07/18 06:45:01;;;;;;;4.72;1.38;;;;;;;21.05;28.46;95645.31;4985241;28;20236;-63
2022/07/18 06:47:26;;;;;;;2.58;2.15;;;;;;;21.13;28.55;95645.94;4981988;28;20234;-62
2022/07/18 06:49:51;;;;;;;4.70;1.77;;;;;;;21.06;27.87;95641.59;4985648;28;20208;-61
2022/07/18 06:52:17;;;;;;;2.50;1.80;;;;;;;21.13;26.50;95637.09;4978197;28;20227;-61
2022/07/18 06:54:42;;;;;;;4.60;1.77;;;;;;;21.20;26.95;95637.09;4984289;28;20231;-61
2022/07/18 06:57:09;;;;;;;3.35;1.42;;;;;;;21.23;26.60;95634.06;4977523;28;20223;-61
2022/07/18 06:59:35;;;;;;;1.50;1.27;;;;;;;21.30;26.66;95632.19;4980775;28;20227;-64
2022/07/18 07:02:00;;;;;;;2.30;1.55;;;;;;;21.33;26.44;95621.94;4984419;28;20200;-61
2022/07/18 07:04:25;;;;;;;5.65;1.63;;;;;;;21.30;26.67;95625.00;4964932;28;20204;-62
2022/07/18 07:06:51;;;;;;;4.55;1.58;;;;;;;21.41;27.48;95623.63;4981517;28;20227;-61
2022/07/18 07:09:16;;;;;;;2.83;1.70;;;;;;;21.34;26.04;95618.22;4981269;28;20322;-62
2022/07/18 07:11:42;;;;;;;1.80;1.20;;;;;;;21.42;25.90;95627.13;4981633;28;20246;-61
2022/07/18 07:14:07;;;;;;;3.60;1.40;;;;;;;21.34;25.97;95630.78;4981666;28;20238;-62
2022/07/18 07:16:33;;;;;;;2.65;1.40;;;;;;;21.41;25.57;95625.44;4987295;28;20225;-61
2022/07/18 07:18:58;;;;;;;3.70;1.33;;;;;;;21.37;24.68;95622.34;4982276;28;20219;-62
2022/07/18 07:21:24;;;;;;;1.40;1.20;;;;;;;21.44;24.79;95617.84;4975272;28;20753;-62
2022/07/18 07:23:49;;;;;;;1.67;1.20;;;;;;;21.45;25.06;95622.16;4978895;28;20228;-62
2022/07/18 07:26:15;;;;;;;3.17;1.17;;;;;;;21.46;25.40;95615.78;4982979;28;20224;-62
2022/07/18 07:28:40;;;;;;;2.35;1.25;;;;;;;21.48;25.81;95620.94;4978917;28;20215;-63
2022/07/18 07:31:05;;;;;;;2.78;1.40;;;;;;;21.62;25.39;95624.44;4980997;28;20227;-62
2022/07/18 07:33:31;;;;;;;1.75;1.35;;;;;;;21.67;25.61;95619.28;4985441;28;20226;-62
2022/07/18 07:35:57;;;;;;;2.42;1.10;;;;;;;21.77;24.02;95627.72;4980335;28;20315;-63
2022/07/18 07:38:27;;;;;;;2.20;1.40;;;;;;;21.79;24.56;95625.69;4986020;28;20239;-62
2022/07/18 07:40:53;;;;;;;6.72;3.30;;;;;;;21.84;24.47;95623.22;4978340;28;20216;-62
2022/07/18 07:43:19;;;;;;;3.40;1.77;;;;;;;21.87;25.27;95628.16;4976663;28;20223;-61
2022/07/18 07:45:50;;;;;;;2.75;1.13;;;;;;;21.93;24.77;95630.00;4975521;28;20223;-63
2022/07/18 07:48:16;;;;;;;3.80;1.77;;;;;;;21.91;25.26;95615.16;4976511;28;20220;-62
2022/07/18 07:50:42;;;;;;;2.25;1.42;;;;;;;21.96;25.44;95615.34;4988994;28;20227;-62
2022/07/18 07:53:07;;;;;;;2.85;1.55;;;;;;;22.13;25.33;95626.44;4989803;28;20547;-62
2022/07/18 07:55:33;;;;;;;3.25;1.50;;;;;;;22.15;24.79;95627.06;4977910;28;20212;-62
2022/07/18 07:57:59;;;;;;;3.08;1.58;;;;;;;22.18;24.90;95624.81;4975366;28;20366;-62
2022/07/18 08:00:25;;;;;;;1.52;1.20;;;;;;;22.16;24.54;95626.03;4983775;28;20220;-62
2022/07/18 08:02:58;;;;;;;3.38;1.70;;;;;;;22.00;24.22;95633.50;4983082;28;20240;-63
2022/07/18 08:05:24;;;;;;;5.15;1.58;;;;;;;22.11;24.44;95618.63;4985367;28;20228;-63
2022/07/18 08:07:50;;;;;;;1.52;1.23;;;;;;;22.41;25.13;95631.59;4989257;28;20215;-63
2022/07/18 08:10:16;;;;;;;3.28;2.13;;;;;;;22.26;25.04;95626.44;4981339;28;20323;-62
2022/07/18 08:12:41;;;;;;;3.00;1.65;;;;;;;22.25;23.93;95630.19;4984116;28;20312;-61
2022/07/18 08:15:08;;;;;;;3.22;1.33;;;;;;;22.41;25.40;95629.72;4962855;28;20220;-61
2022/07/18 08:17:34;;;;;;;6.20;1.42;;;;;;;22.39;24.92;95631.78;4975002;28;20232;-63
2022/07/18 08:19:59;;;;;;;3.15;1.63;;;;;;;22.29;24.19;95631.38;4982544;28;20239;-63
2022/07/18 08:22:25;;;;;;;4.75;1.83;;;;;;;22.34;23.70;95628.91;4985368;28;20219;-63
2022/07/18 08:24:50;;;;;;;3.00;1.42;;;;;;;22.43;23.74;95627.66;4985625;28;20211;-63
2022/07/18 08:27:16;;;;;;;5.75;1.73;;;;;;;22.44;23.86;95626.63;4983268;28;20315;-61
2022/07/18 08:29:41;;;;;;;4.75;1.55;;;;;;;22.43;22.92;95626.84;4984982;28;20302;-61
2022/07/18 08:32:08;;;;;;;2.53;1.35;;;;;;;22.50;23.58;95635.66;4976455;28;20200;-64
2022/07/18 08:34:33;;;;;;;2.53;1.40;;;;;;;22.58;23.98;95635.44;4977639;28;20215;-61
2022/07/18 08:36:59;;;;;;;3.15;1.48;;;;;;;22.62;23.67;95625.94;4977784;28;20294;-63
2022/07/18 08:39:24;;;;;;;2.20;1.52;;;;;;;22.48;23.91;95629.72;4975157;28;20249;-63
2022/07/18 08:41:51;;;;;;;2.47;1.00;;;;;;;22.58;24.71;95626.56;4976791;28;20234;-62
2022/07/18 08:44:17;;;;;;;2.28;1.30;;;;;;;22.63;25.37;95632.13;4979681;28;20224;-62
2022/07/18 08:46:50;;;;;;;1.17;1.08;;;;;;;22.70;24.75;95630.25;4980869;28;20227;-66
2022/07/18 08:49:16;;;;;;;1.65;1.40;;;;;;;22.83;24.46;95629.38;4974279;28;20233;-62
2022/07/18 08:51:45;;;;;;;3.67;1.42;;;;;;;22.83;25.12;95627.50;4979241;28;20605;-61
2022/07/18 08:54:11;;;;;;;4.65;4.28;;;;;;;22.84;24.95;95629.16;4975834;28;20227;-61
2022/07/18 08:56:36;;;;;;;2.67;2.38;;;;;;;22.81;25.06;95624.22;4978298;28;20254;-62
2022/07/18 08:59:03;;;;;;;3.67;1.45;;;;;;;22.95;25.61;95621.47;4981721;28;20204;-65
2022/07/18 09:01:32;;;;;;;2.08;1.58;;;;;;;23.05;25.18;95629.91;4981944;28;20684;-62
2022/07/18 09:04:16;;;;;;;1.50;1.40;;;;;;;22.94;25.05;95617.16;4976118;28;20310;-63
2022/07/18 09:06:43;;;;;;;6.63;2.33;;;;;;;22.97;25.10;95622.94;4980919;28;20242;-62
2022/07/18 09:09:12;;;;;;;2.67;1.20;;;;;;;22.92;24.94;95619.22;4976698;28;20254;-62
2022/07/18 09:11:49;;;;;;;2.63;1.20;;;;;;;23.10;24.50;95622.88;4980432;28;20607;-62
2022/07/18 09:14:38;;;;;;;4.95;1.80;;;;;;;23.20;24.96;95616.19;4981247;28;20239;-62
2022/07/18 09:17:05;;;;;;;2.63;1.40;;;;;;;23.27;25.46;95617.78;4986468;28;20215;-62
2022/07/18 09:19:32;;;;;;;2.63;1.48;;;;;;;23.22;24.65;95619.47;4989296;28;20224;-61
2022/07/18 09:22:14;;;;;;;3.17;1.25;;;;;;;23.16;24.17;95626.53;4975062;28;20234;-61
2022/07/18 09:24:53;;;;;;;3.13;2.00;;;;;;;23.05;24.60;95621.88;4981836;28;20306;-61
2022/07/18 09:27:35;;;;;;;4.07;2.08;;;;;;;23.26;24.74;95624.22;4986835;28;20273;-62
2022/07/18 09:30:08;;;;;;;3.15;1.60;;;;;;;23.15;24.47;95626.75;4979636;28;20224;-62
2022/07/18 09:32:34;;;;;;;2.45;1.50;;;;;;;23.28;25.02;95619.47;4978922;28;20230;-62
2022/07/18 09:35:10;;;;;;;5.75;1.95;;;;;;;23.42;24.98;95624.75;4984891;28;20219;-61
2022/07/18 09:37:35;;;;;;;4.85;2.15;;;;;;;23.59;25.01;95625.03;4980121;28;20207;-63
2022/07/18 09:40:18;;;;;;;2.83;1.50;;;;;;;23.69;25.17;95620.81;4974354;28;20300;-61
2022/07/18 09:42:49;;;;;;;3.00;1.85;;;;;;;23.77;25.20;95623.25;4971954;28;20224;-65
2022/07/18 09:45:14;;;;;;;3.17;1.80;;;;;;;23.89;25.17;95626.03;4971897;28;20705;-62
2022/07/18 09:47:58;;;;;;;2.90;1.60;;;;;;;23.97;24.26;95617.69;4971616;28;20227;-64
2022/07/18 09:50:40;;;;;;;5.72;1.83;;;;;;;24.14;24.42;95611.78;4972773;28;21399;-64
2022/07/18 09:53:15;;;;;;;3.92;1.65;;;;;;;24.14;24.30;95607.22;4977603;28;20223;-63
2022/07/18 09:55:52;;;;;;;4.38;1.60;;;;;;;24.22;23.96;95611.47;4970887;28;20215;-62
2022/07/18 09:58:24;;;;;;;4.78;1.88;;;;;;;24.23;24.28;95613.09;4973211;28;20230;-63
2022/07/18 10:00:52;;;;;;;4.68;1.60;;;;;;;24.34;23.76;95611.56;4986627;28;20219;-63
2022/07/18 10:03:18;;;;;;;3.58;1.65;;;;;;;24.46;24.25;95608.97;4972513;28;20224;-63
2022/07/18 10:05:45;;;;;;;3.55;1.73;;;;;;;24.51;25.24;95606.41;4969839;28;20244;-63
2022/07/18 10:08:13;;;;;;;2.42;1.48;;;;;;;24.79;23.89;95608.56;4976093;28;20220;-63
2022/07/18 10:10:41;;;;;;;3.17;1.63;;;;;;;24.93;24.38;95607.34;4979928;28;20215;-63
2022/07/18 10:13:08;;;;;;;4.97;1.77;;;;;;;24.95;24.18;95594.50;4976576;28;20335;-63
2022/07/18 10:15:36;;;;;;;2.28;1.70;;;;;;;25.17;24.19;95602.09;4982204;28;20597;-63
2022/07/18 10:18:03;;;;;;;3.08;1.70;;;;;;;25.44;25.22;95597.13;4979277;28;20235;-63
2022/07/18 10:20:36;;;;;;;5.07;1.80;;;;;;;25.56;24.05;95583.72;4983751;28;20278;-63
2022/07/18 10:23:10;;;;;;;3.60;1.75;;;;;;;25.50;23.58;95594.34;4984906;28;20275;-63
2022/07/18 10:25:36;;;;;;;5.65;1.77;;;;;;;25.61;24.14;95584.66;4987551;28;20229;-63
2022/07/18 10:28:09;;;;;;;2.00;1.90;;;;;;;25.57;23.37;95574.56;4986487;28;20696;-62
2022/07/18 10:30:37;;;;;;;2.92;1.58;;;;;;;25.59;23.21;95573.28;4988873;28;20231;-62
2022/07/18 10:33:23;;;;;;;2.67;1.80;;;;;;;25.70;22.88;95582.44;4981093;28;20240;-63
2022/07/18 10:36:04;;;;;;;7.18;2.05;;;;;;;25.83;23.79;95584.91;4978546;28;20626;-64
2022/07/18 10:38:30;;;;;;;3.58;2.03;;;;;;;25.91;23.33;95573.81;4975898;28;20228;-62
2022/07/18 10:41:24;;;;;;;3.58;1.88;;;;;;;26.06;23.24;95570.66;4982458;28;20269;-64
2022/07/18 10:43:50;;;;;;;3.30;1.70;;;;;;;26.29;23.47;95569.78;4947519;28;20224;-63
2022/07/18 10:46:15;;;;;;;4.55;2.20;;;;;;;26.49;23.33;95569.41;4951170;28;20235;-64
2022/07/18 10:48:40;;;;;;;7.50;1.90;;;;;;;26.52;22.78;95565.47;4949961;28;20845;-63
2022/07/18 10:51:15;;;;;;;3.70;2.10;;;;;;;26.66;23.85;95568.69;4958428;28;20279;-64
2022/07/18 10:53:53;;;;;;;3.40;1.70;;;;;;;26.81;23.37;95561.72;4946805;28;20310;-59
2022/07/18 10:56:19;;;;;;;2.58;1.73;;;;;;;26.84;23.57;95563.94;4960582;28;20290;-61
2022/07/18 10:58:44;;;;;;;2.85;1.60;;;;;;;26.87;23.04;95559.13;4947514;28;20302;-59
2022/07/18 11:01:16;;;;;;;2.88;1.88;;;;;;;26.79;22.97;95552.25;4946924;28;20734;-60
2022/07/18 11:03:42;;;;;;;3.13;1.90;;;;;;;26.77;22.32;95548.94;4944009;28;20236;-61
2022/07/18 11:06:08;;;;;;;4.30;1.80;;;;;;;26.74;22.46;95552.13;4956230;28;20238;-61
2022/07/18 11:08:33;;;;;;;4.07;1.90;;;;;;;27.05;23.15;95550.81;4947310;28;20232;-62
2022/07/18 11:11:01;;;;;;;6.00;2.03;;;;;;;27.25;22.53;95550.41;4948481;28;20271;-61
2022/07/18 11:13:33;;;;;;;4.35;2.20;;;;;;;27.39;22.16;95550.91;4947160;28;20235;-61
2022/07/18 11:16:09;;;;;;;3.08;1.80;;;;;;;27.56;21.87;95532.84;4946872;28;20229;-62
2022/07/18 11:18:44;;;;;;;3.38;1.60;;;;;;;27.80;21.88;95549.72;4942773;28;20343;-62
2022/07/18 11:21:31;;;;;;;3.33;1.70;;;;;;;27.89;20.91;95544.72;4983052;28;20228;-61
2022/07/18 11:24:04;;;;;;;3.00;2.10;;;;;;;27.81;20.72;95539.72;4980518;28;20216;-61
2022/07/18 11:26:31;;;;;;;3.45;2.10;;;;;;;27.77;22.00;95544.75;4979529;28;20231;-62
2022/07/18 11:29:08;;;;;;;3.13;1.73;;;;;;;28.04;22.77;95547.63;4978063;28;20243;-61
2022/07/18 11:31:52;;;;;;;2.90;1.90;;;;;;;28.19;20.88;95546.22;4980213;28;20269;-61
2022/07/18 11:34:18;;;;;;;4.32;1.92;;;;;;;27.96;22.66;95544.53;4981520;28;20250;-63